Time;durP1;ratioP1;P1;durP2;ratioP2;P2;SDS_P1;SDS_P2;PMS_P1;PMS_P2;Temp;Humidity;BMP_temperature;BMP_pressure;BME280_temperature;BME280_humidity;BME280_pressure;Samples;Min_cycle;Max_cycle;Signal;HPM_P1;HPM_P2
2022/01/10 00:02:06;;;;;;;1999.90;999.90;;;3.40;99.90;;;;;;5093499;28;20190;-74
2022/01/10 00:04:32;;;;;;;1999.90;999.90;;;3.40;99.90;;;;;;5093367;28;20678;-74
2022/01/10 00:06:57;;;;;;;1999.90;999.90;;;3.50;99.90;;;;;;5093387;28;20229;-74
2022/01/10 00:09:23;;;;;;;1999.90;999.90;;;3.50;99.90;;;;;;5093333;28;20415;-74
2022/01/10 00:11:49;;;;;;;1999.90;999.90;;;3.40;99.90;;;;;;5093270;28;20687;-74
2022/01/10 00:14:14;;;;;;;1999.90;999.90;;;3.40;99.90;;;;;;5092907;28;20676;-74
2022/01/10 00:16:40;;;;;;;1999.90;999.90;;;3.50;99.90;;;;;;5093481;28;20663;-74
2022/01/10 00:19:06;;;;;;;1999.90;999.90;;;3.50;99.90;;;;;;5093163;28;20627;-74
2022/01/10 00:21:32;;;;;;;1999.90;999.90;;;3.50;99.90;;;;;;5093155;28;20166;-74
2022/01/10 00:23:58;;;;;;;1999.90;999.90;;;3.40;99.90;;;;;;5093015;28;20215;-74
2022/01/10 00:26:23;;;;;;;1999.90;999.90;;;3.40;99.90;;;;;;5092749;28;20447;-74
2022/01/10 00:28:49;;;;;;;1999.90;999.90;;;3.40;99.90;;;;;;5092995;28;20241;-74
2022/01/10 00:31:15;;;;;;;1999.90;999.90;;;3.50;99.90;;;;;;5092926;28;20163;-74
2022/01/10 00:33:40;;;;;;;1999.90;999.90;;;3.40;99.90;;;;;;5092789;28;20241;-74
2022/01/10 00:36:06;;;;;;;1999.90;999.90;;;3.40;99.90;;;;;;5092563;28;20221;-74
2022/01/10 00:38:31;;;;;;;1999.90;999.90;;;3.40;99.90;;;;;;5092811;28;20166;-74
2022/01/10 00:40:57;;;;;;;1999.90;999.90;;;3.40;99.90;;;;;;5074680;28;20171;-74
2022/01/10 00:43:34;;;;;;;1999.90;999.90;;;3.50;99.90;;;;;;5092717;28;20224;-74
2022/01/10 00:46:01;;;;;;;1999.90;999.90;;;3.50;99.90;;;;;;5074102;28;20198;-74
2022/01/10 00:48:27;;;;;;;1999.90;999.90;;;3.40;99.90;;;;;;5092648;28;20534;-74
2022/01/10 00:50:53;;;;;;;1999.90;999.90;;;3.40;99.90;;;;;;5092643;28;20166;-74
2022/01/10 00:53:18;;;;;;;1999.90;999.90;;;3.40;99.90;;;;;;5092495;28;20186;-74
2022/01/10 00:55:44;;;;;;;1999.90;999.90;;;3.30;99.90;;;;;;5091484;28;20481;-74
2022/01/10 00:58:11;;;;;;;1999.90;999.90;;;3.30;99.90;;;;;;5092492;28;20628;-74
2022/01/10 01:00:36;;;;;;;1999.90;999.90;;;3.20;99.90;;;;;;5092473;28;20167;-74
2022/01/10 01:03:03;;;;;;;1999.90;999.90;;;3.20;99.90;;;;;;5092496;28;20182;-74
2022/01/10 01:05:30;;;;;;;1999.90;999.90;;;3.20;99.90;;;;;;5091950;28;20315;-74
2022/01/10 01:08:00;;;;;;;1999.90;999.90;;;3.20;99.90;;;;;;5092306;28;20167;-74
2022/01/10 01:15:45;;;;;;;1999.90;999.90;;;3.00;99.90;;;;;;5092111;28;20218;-74
2022/01/10 01:26:02;;;;;;;1999.90;999.90;;;3.00;99.90;;;;;;5091954;28;20224;-74
2022/01/10 01:28:29;;;;;;;1999.90;999.90;;;3.00;99.90;;;;;;5092081;28;20193;-74
2022/01/10 01:30:55;;;;;;;1999.90;999.90;;;3.00;99.90;;;;;;5092071;28;20186;-74
2022/01/10 01:33:21;;;;;;;1999.90;999.90;;;3.00;99.90;;;;;;5091995;28;20193;-74
2022/01/10 01:35:47;;;;;;;1999.90;999.90;;;3.00;99.90;;;;;;5091701;28;20792;-74
2022/01/10 01:38:14;;;;;;;1999.90;999.90;;;3.00;99.90;;;;;;5091893;28;20765;-74
2022/01/10 01:40:46;;;;;;;1999.90;999.90;;;3.00;99.90;;;;;;5091963;28;20249;-74
2022/01/10 01:43:12;;;;;;;1999.90;999.90;;;3.00;99.90;;;;;;5091955;28;20163;-74
2022/01/10 01:45:42;;;;;;;1999.90;999.90;;;3.00;99.90;;;;;;5091703;28;20194;-74
2022/01/10 01:48:08;;;;;;;1999.90;999.90;;;3.00;99.90;;;;;;5091965;28;20170;-74
2022/01/10 01:50:34;;;;;;;1999.90;999.90;;;3.00;99.90;;;;;;5091850;28;20662;-74
2022/01/10 01:53:00;;;;;;;1999.90;999.90;;;3.00;99.90;;;;;;5091788;28;20198;-75
2022/01/10 01:55:26;;;;;;;1999.90;999.90;;;3.10;99.90;;;;;;5091477;28;20671;-74
2022/01/10 01:57:52;;;;;;;1999.90;999.90;;;3.10;99.90;;;;;;5091844;28;20165;-74
2022/01/10 02:00:19;;;;;;;1999.90;999.90;;;3.20;99.90;;;;;;5091781;28;20174;-74
2022/01/10 02:02:51;;;;;;;1999.90;999.90;;;3.20;99.90;;;;;;5091747;28;20416;-74
2022/01/10 02:05:17;;;;;;;1999.90;999.90;;;3.10;99.90;;;;;;5091379;28;20570;-74
2022/01/10 02:07:43;;;;;;;1999.90;999.90;;;3.10;99.90;;;;;;5095455;28;20220;-74
2022/01/10 02:10:09;;;;;;;1999.90;999.90;;;3.10;99.90;;;;;;5095730;28;20170;-74
2022/01/10 02:12:35;;;;;;;1999.90;999.90;;;3.00;99.90;;;;;;5095529;28;20400;-74
2022/01/10 02:15:00;;;;;;;1999.90;999.90;;;2.90;99.90;;;;;;5095176;28;20465;-74
2022/01/10 02:17:34;;;;;;;1999.90;999.90;;;2.80;99.90;;;;;;5095563;28;20575;-74
2022/01/10 02:20:03;;;;;;;1999.90;999.90;;;2.70;99.90;;;;;;5095488;28;20201;-74
2022/01/10 02:22:29;;;;;;;1999.90;999.90;;;2.50;99.90;;;;;;5077088;28;20546;-75
2022/01/10 02:24:54;;;;;;;1999.90;999.90;;;2.40;99.90;;;;;;5076853;28;20187;-74
2022/01/10 02:27:22;;;;;;;1999.90;999.90;;;2.20;99.90;;;;;;5095495;28;20784;-74
2022/01/10 02:29:48;;;;;;;1999.90;999.90;;;2.10;99.90;;;;;;5095331;28;20162;-74
2022/01/10 02:32:14;;;;;;;1999.90;999.90;;;2.10;99.90;;;;;;5095240;28;20162;-74
2022/01/10 02:34:39;;;;;;;1999.90;999.90;;;2.00;99.90;;;;;;5094706;28;20239;-74
2022/01/10 02:37:05;;;;;;;1999.90;999.90;;;1.90;99.90;;;;;;5095155;28;20197;-74
2022/01/10 02:39:31;;;;;;;1999.90;999.90;;;1.90;99.90;;;;;;5095229;28;20167;-74
2022/01/10 02:41:56;;;;;;;1999.90;999.90;;;1.80;99.90;;;;;;5095102;28;20158;-74
2022/01/10 02:44:22;;;;;;;1999.90;999.90;;;1.80;99.90;;;;;;5094757;28;20363;-74
2022/01/10 02:46:48;;;;;;;1999.90;999.90;;;1.70;99.90;;;;;;5094905;28;20194;-74
2022/01/10 02:49:27;;;;;;;1999.90;999.90;;;1.60;99.90;;;;;;5094893;28;20177;-74
2022/01/10 02:51:56;;;;;;;1999.90;999.90;;;1.50;99.90;;;;;;5094840;28;20177;-74
2022/01/10 02:54:23;;;;;;;1999.90;999.90;;;1.50;99.90;;;;;;5094483;28;20194;-74
2022/01/10 02:56:54;;;;;;;1999.90;999.90;;;1.50;99.90;;;;;;5094588;28;20190;-74
2022/01/10 02:59:21;;;;;;;1999.90;999.90;;;1.40;99.90;;;;;;5094731;28;20202;-74
2022/01/10 03:01:47;;;;;;;1999.90;999.90;;;1.30;99.90;;;;;;5094661;28;20171;-74
2022/01/10 03:04:15;;;;;;;1999.90;999.90;;;1.20;99.90;;;;;;5094416;28;20159;-74
2022/01/10 03:06:41;;;;;;;1999.90;999.90;;;1.20;99.90;;;;;;5094443;28;20865;-74
2022/01/10 03:09:09;;;;;;;1999.90;999.90;;;1.20;99.90;;;;;;5094653;28;20174;-74
2022/01/10 03:11:36;;;;;;;1999.90;999.90;;;1.30;99.90;;;;;;5094451;28;20171;-74
2022/01/10 03:14:02;;;;;;;1999.90;999.90;;;1.30;99.90;;;;;;5093981;28;20675;-74
2022/01/10 03:16:29;;;;;;;1999.90;999.90;;;1.40;99.90;;;;;;5094289;28;20191;-74
2022/01/10 03:18:54;;;;;;;1999.90;999.90;;;1.30;99.90;;;;;;5093588;28;20415;-74
2022/01/10 03:21:20;;;;;;;1999.90;999.90;;;1.30;99.90;;;;;;5094246;28;20166;-74
2022/01/10 03:23:51;;;;;;;1999.90;999.90;;;1.20;99.90;;;;;;5094264;28;20202;-74
2022/01/10 03:26:17;;;;;;;1999.90;999.90;;;1.30;99.90;;;;;;5093757;28;20194;-74
2022/01/10 03:28:43;;;;;;;1999.90;999.90;;;1.30;99.90;;;;;;5094095;28;20192;-74
2022/01/10 03:31:08;;;;;;;1999.90;999.90;;;1.30;99.90;;;;;;5094141;28;20708;-74
2022/01/10 03:33:34;;;;;;;1999.90;999.90;;;1.30;99.90;;;;;;5094014;28;20198;-74
2022/01/10 03:36:00;;;;;;;1999.90;999.90;;;1.30;99.90;;;;;;5075433;28;20216;-74
2022/01/10 03:38:25;;;;;;;1999.90;999.90;;;1.30;99.90;;;;;;5093938;28;20167;-74
2022/01/10 03:40:51;;;;;;;1999.90;999.90;;;1.20;99.90;;;;;;5093939;28;20166;-74
2022/01/10 03:43:17;;;;;;;1999.90;999.90;;;1.20;99.90;;;;;;5093798;28;20178;-74
2022/01/10 03:45:43;;;;;;;1999.90;999.90;;;1.10;99.90;;;;;;5093456;28;20186;-74
2022/01/10 03:48:09;;;;;;;1999.90;999.90;;;1.20;99.90;;;;;;5093796;28;20223;-74
2022/01/10 03:50:35;;;;;;;1999.90;999.90;;;1.20;99.90;;;;;;5093641;28;20170;-74
2022/01/10 03:53:01;;;;;;;1999.90;999.90;;;1.10;99.90;;;;;;5093613;28;20201;-74
2022/01/10 03:55:27;;;;;;;1999.90;999.90;;;1.10;99.90;;;;;;5093279;28;20581;-74
2022/01/10 03:57:53;;;;;;;1999.90;999.90;;;1.10;99.90;;;;;;5093544;28;20403;-74
2022/01/10 04:00:18;;;;;;;1999.90;999.90;;;1.10;99.90;;;;;;5093633;28;20158;-74
2022/01/10 04:02:52;;;;;;;1999.90;999.90;;;1.00;99.90;;;;;;5093515;28;20165;-74
2022/01/10 04:05:18;;;;;;;1999.90;999.90;;;1.00;99.90;;;;;;5093123;28;20186;-74
2022/01/10 04:07:43;;;;;;;1999.90;999.90;;;0.90;99.90;;;;;;5093379;28;20174;-74
2022/01/10 04:10:09;;;;;;;1999.90;999.90;;;0.90;99.90;;;;;;5093410;28;20408;-74
2022/01/10 04:12:35;;;;;;;1999.90;999.90;;;0.80;99.90;;;;;;5093164;28;20776;-74
2022/01/10 04:15:00;;;;;;;1999.90;999.90;;;0.70;99.90;;;;;;5092989;28;20186;-74
2022/01/10 04:17:26;;;;;;;1999.90;999.90;;;0.70;99.90;;;;;;5075075;28;20174;-74
2022/01/10 04:19:52;;;;;;;1999.90;999.90;;;0.70;99.90;;;;;;5093164;28;20627;-74
2022/01/10 04:22:17;;;;;;;1999.90;999.90;;;0.70;99.90;;;;;;5093150;28;20193;-74
2022/01/10 04:24:43;;;;;;;1999.90;999.90;;;0.60;99.90;;;;;;5092721;28;20661;-74
2022/01/10 04:27:09;;;;;;;1999.90;999.90;;;0.50;99.90;;;;;;5093508;28;20181;-74
2022/01/10 04:29:34;;;;;;;1999.90;999.90;;;0.50;99.90;;;;;;5091942;28;20202;-73
2022/01/10 04:32:00;;;;;;;1999.90;999.90;;;0.60;99.90;;;;;;5092938;28;20823;-73
2022/01/10 04:34:26;;;;;;;1999.90;999.90;;;0.60;99.90;;;;;;5092498;28;20194;-73
2022/01/10 04:36:52;;;;;;;1999.90;999.90;;;0.60;99.90;;;;;;5092823;28;20190;-73
2022/01/10 04:39:17;;;;;;;1999.90;999.90;;;0.60;99.90;;;;;;5092877;28;20174;-73
2022/01/10 04:41:44;;;;;;;1999.90;999.90;;;0.60;99.90;;;;;;5092748;28;20577;-74
2022/01/10 04:44:10;;;;;;;1999.90;999.90;;;0.60;99.90;;;;;;5092494;28;20169;-73
2022/01/10 04:46:36;;;;;;;1999.90;999.90;;;0.70;99.90;;;;;;5092635;28;20762;-73
2022/01/10 04:49:02;;;;;;;1999.90;999.90;;;0.60;99.90;;;;;;5092602;28;20416;-73
2022/01/10 04:51:29;;;;;;;1999.90;999.90;;;0.70;99.90;;;;;;5092614;28;20170;-73
2022/01/10 04:53:55;;;;;;;1999.90;999.90;;;0.70;99.90;;;;;;5092399;28;20243;-73
2022/01/10 04:56:22;;;;;;;1999.90;999.90;;;0.60;99.90;;;;;;5092237;28;20221;-73
2022/01/10 04:58:50;;;;;;;1999.90;999.90;;;0.60;99.90;;;;;;5092447;28;20170;-73
2022/01/10 05:01:17;;;;;;;1999.90;999.90;;;0.60;99.90;;;;;;5092509;28;20158;-73
2022/01/10 05:03:43;;;;;;;1999.90;999.90;;;0.60;99.90;;;;;;5092325;28;20214;-73
2022/01/10 05:06:08;;;;;;;1999.90;999.90;;;0.60;99.90;;;;;;5092084;28;20199;-73
2022/01/10 05:08:34;;;;;;;1999.90;999.90;;;0.60;99.90;;;;;;5092298;28;20960;-73
2022/01/10 05:11:00;;;;;;;1999.90;999.90;;;0.60;99.90;;;;;;5074453;28;20440;-73
2022/01/10 05:13:26;;;;;;;1999.90;999.90;;;0.70;99.90;;;;;;5092199;28;20190;-73
2022/01/10 05:15:53;;;;;;;1999.90;999.90;;;0.70;99.90;;;;;;5091886;28;20423;-73
2022/01/10 05:18:20;;;;;;;1999.90;999.90;;;0.70;99.90;;;;;;5092217;28;20162;-73
2022/01/10 05:20:47;;;;;;;1999.90;999.90;;;0.80;99.90;;;;;;5092133;28;20193;-73
2022/01/10 05:23:13;;;;;;;1999.90;999.90;;;0.90;99.90;;;;;;5092110;28;20166;-73
2022/01/10 05:25:40;;;;;;;1999.90;999.90;;;1.10;99.90;;;;;;5091693;28;20205;-73
2022/01/10 05:28:10;;;;;;;1999.90;999.90;;;1.10;99.90;;;;;;5092090;28;20253;-73
2022/01/10 05:30:37;;;;;;;1999.90;999.90;;;1.20;99.90;;;;;;5092115;28;20177;-73
2022/01/10 05:33:03;;;;;;;1999.90;999.90;;;1.30;99.90;;;;;;5091915;28;20200;-73
2022/01/10 05:35:29;;;;;;;1999.90;999.90;;;1.30;99.90;;;;;;5091688;28;20326;-73
2022/01/10 05:37:54;;;;;;;1999.90;999.90;;;1.30;99.90;;;;;;5092004;28;20190;-73
2022/01/10 05:40:20;;;;;;;1999.90;999.90;;;1.40;99.90;;;;;;5091989;28;20632;-73
2022/01/10 05:42:46;;;;;;;1999.90;999.90;;;1.40;99.90;;;;;;5096086;28;20200;-73
2022/01/10 05:45:12;;;;;;;1999.90;999.90;;;1.60;99.90;;;;;;5095831;28;20206;-73
2022/01/10 05:47:43;;;;;;;1999.90;999.90;;;1.60;99.90;;;;;;5096080;28;20319;-73
2022/01/10 05:50:11;;;;;;;1999.90;999.90;;;1.60;99.90;;;;;;5096082;28;20196;-73
2022/01/10 05:52:37;;;;;;;1999.90;999.90;;;1.60;99.90;;;;;;5095901;28;20657;-73
2022/01/10 05:55:05;;;;;;;1999.90;999.90;;;1.60;99.90;;;;;;5095577;28;20185;-73
2022/01/10 05:57:30;;;;;;;1999.90;999.90;;;1.60;99.90;;;;;;5095883;28;20172;-73
2022/01/10 05:59:56;;;;;;;1999.90;999.90;;;1.60;99.90;;;;;;5095875;28;20683;-74
2022/01/10 06:02:22;;;;;;;1999.90;999.90;;;1.50;99.90;;;;;;5095839;28;20405;-75
2022/01/10 06:04:48;;;;;;;1999.90;999.90;;;1.40;99.90;;;;;;5095409;28;20785;-74
2022/01/10 06:07:14;;;;;;;1999.90;999.90;;;1.50;99.90;;;;;;5095855;28;20762;-74
2022/01/10 06:09:39;;;;;;;1999.90;999.90;;;1.60;99.90;;;;;;5095720;28;20194;-73
2022/01/10 06:12:05;;;;;;;1999.90;999.90;;;1.60;99.90;;;;;;5095709;28;20201;-73
2022/01/10 06:14:31;;;;;;;1999.90;999.90;;;1.80;99.90;;;;;;5095223;28;20190;-73
2022/01/10 06:16:57;;;;;;;1999.90;999.90;;;1.90;99.90;;;;;;5095449;28;20562;-74
2022/01/10 06:19:22;;;;;;;1999.90;999.90;;;2.00;99.90;;;;;;5095461;28;20658;-73
2022/01/10 06:21:48;;;;;;;1999.90;999.90;;;2.10;99.90;;;;;;5095428;28;20169;-74
2022/01/10 06:24:13;;;;;;;1999.90;999.90;;;2.20;99.90;;;;;;5095183;28;20166;-74
2022/01/10 06:26:39;;;;;;;1999.90;999.90;;;2.30;99.90;;;;;;5095171;28;20255;-73
2022/01/10 06:29:05;;;;;;;1999.90;999.90;;;2.30;99.90;;;;;;5095330;28;20257;-74
2022/01/10 06:31:30;;;;;;;1999.90;999.90;;;2.20;99.90;;;;;;5095317;28;20575;-74
2022/01/10 06:33:56;;;;;;;1999.90;999.90;;;2.30;99.90;;;;;;5095092;28;20206;-73
2022/01/10 06:36:22;;;;;;;1999.90;999.90;;;2.30;99.90;;;;;;5094908;28;20257;-73
2022/01/10 06:38:48;;;;;;;1999.90;999.90;;;2.30;99.90;;;;;;5095195;28;20177;-74
2022/01/10 06:41:13;;;;;;;1999.90;999.90;;;2.40;99.90;;;;;;5095092;28;20166;-73
2022/01/10 06:43:39;;;;;;;1999.90;999.90;;;2.40;99.90;;;;;;5095080;28;20198;-73
2022/01/10 06:46:06;;;;;;;1999.90;999.90;;;2.40;99.90;;;;;;5094621;28;20205;-73
2022/01/10 06:48:32;;;;;;;1999.90;999.90;;;2.50;99.90;;;;;;5094855;28;20197;-74
2022/01/10 06:50:58;;;;;;;1999.90;999.90;;;2.50;99.90;;;;;;5094935;28;20175;-74
2022/01/10 06:53:23;;;;;;;1999.90;999.90;;;2.50;99.90;;;;;;5075614;28;20198;-73
2022/01/10 06:55:49;;;;;;;1999.90;999.90;;;2.40;99.90;;;;;;5094465;28;20193;-74
2022/01/10 06:58:15;;;;;;;1999.90;999.90;;;2.40;99.90;;;;;;5094803;28;20159;-74
2022/01/10 07:00:41;;;;;;;1999.90;999.90;;;2.30;99.90;;;;;;5094700;28;20434;-74
2022/01/10 07:03:07;;;;;;;1999.90;999.90;;;2.30;99.90;;;;;;5094624;28;20171;-73
2022/01/10 07:05:33;;;;;;;1999.90;999.90;;;2.30;99.90;;;;;;5094272;28;20983;-74
2022/01/10 07:07:59;;;;;;;1999.90;999.90;;;2.20;99.90;;;;;;5094608;28;20166;-74
2022/01/10 07:10:24;;;;;;;1999.90;999.90;;;2.20;99.90;;;;;;5094603;28;20166;-73
2022/01/10 07:12:50;;;;;;;1999.90;999.90;;;2.10;99.90;;;;;;5094415;28;20200;-74
2022/01/10 07:15:16;;;;;;;1999.90;999.90;;;2.10;99.90;;;;;;5094025;28;20506;-73
2022/01/10 07:17:41;;;;;;;1999.90;999.90;;;2.00;99.90;;;;;;5094442;28;20162;-74
2022/01/10 07:20:07;;;;;;;1999.90;999.90;;;2.00;99.90;;;;;;5094341;28;20216;-74
2022/01/10 07:22:33;;;;;;;1999.90;999.90;;;1.90;99.90;;;;;;5094402;28;20162;-74
2022/01/10 07:24:59;;;;;;;1999.90;999.90;;;1.80;99.90;;;;;;5093799;28;20246;-74
2022/01/10 07:27:25;;;;;;;1999.90;999.90;;;1.80;99.90;;;;;;5094277;28;20173;-74
2022/01/10 07:29:50;;;;;;;1999.90;999.90;;;1.70;99.90;;;;;;5094083;28;20296;-74
2022/01/10 07:32:18;;;;;;;1999.90;999.90;;;1.60;99.90;;;;;;5094131;28;20784;-73
2022/01/10 07:34:43;;;;;;;1999.90;999.90;;;1.60;99.90;;;;;;5093577;28;20197;-73
2022/01/10 07:37:09;;;;;;;1999.90;999.90;;;1.60;99.90;;;;;;5094014;28;20522;-74
2022/01/10 07:39:35;;;;;;;1999.90;999.90;;;1.60;99.90;;;;;;5093987;28;20245;-74
2022/01/10 07:42:00;;;;;;;1999.90;999.90;;;1.50;99.90;;;;;;5093893;28;20158;-73
2022/01/10 07:44:26;;;;;;;1999.90;999.90;;;1.40;99.90;;;;;;5093579;28;20176;-73
2022/01/10 07:46:52;;;;;;;1999.90;999.90;;;1.30;99.90;;;;;;5093762;28;20277;-73
2022/01/10 07:49:17;;;;;;;1999.90;999.90;;;1.30;99.90;;;;;;5093768;28;20178;-74
2022/01/10 07:51:43;;;;;;;1999.90;999.90;;;1.20;99.90;;;;;;5093785;28;20162;-74
2022/01/10 07:54:08;;;;;;;1999.90;999.90;;;1.20;99.90;;;;;;5093411;28;20244;-73
2022/01/10 07:56:34;;;;;;;1999.90;999.90;;;1.20;99.90;;;;;;5093619;28;20205;-74
2022/01/10 07:58:59;;;;;;;1999.90;999.90;;;1.20;99.90;;;;;;5093613;28;20170;-73
2022/01/10 08:01:25;;;;;;;1999.90;999.90;;;1.20;99.90;;;;;;5093541;28;20166;-73
2022/01/10 08:03:52;;;;;;;1999.90;999.90;;;1.20;99.90;;;;;;5093219;28;20173;-74
2022/01/10 08:06:19;;;;;;;1999.90;999.90;;;1.20;99.90;;;;;;5093086;28;20193;-73
2022/01/10 08:08:45;;;;;;;1999.90;999.90;;;1.20;99.90;;;;;;5093412;28;20240;-74
2022/01/10 08:11:10;;;;;;;1999.90;999.90;;;1.20;99.90;;;;;;5093414;28;20651;-74
2022/01/10 08:13:36;;;;;;;1999.90;999.90;;;1.20;99.90;;;;;;5093183;28;20197;-73
2022/01/10 08:16:02;;;;;;;1999.90;999.90;;;1.30;99.90;;;;;;5092850;28;20182;-73
2022/01/10 08:18:30;;;;;;;1999.90;999.90;;;1.30;99.90;;;;;;5093199;28;20167;-74
2022/01/10 08:20:56;;;;;;;1999.90;999.90;;;1.30;99.90;;;;;;5093151;28;20170;-74
2022/01/10 08:23:22;;;;;;;1999.90;999.90;;;1.30;99.90;;;;;;5093106;28;20170;-73
2022/01/10 08:25:48;;;;;;;1999.90;999.90;;;1.40;99.90;;;;;;5092657;28;20671;-73
2022/01/10 08:28:14;;;;;;;1999.90;999.90;;;1.50;99.90;;;;;;5092937;28;20269;-74
2022/01/10 08:30:39;;;;;;;1999.90;999.90;;;1.50;99.90;;;;;;5092960;28;20407;-73
2022/01/10 08:33:05;;;;;;;1999.90;999.90;;;1.60;99.90;;;;;;5092873;28;20590;-73
2022/01/10 08:35:31;;;;;;;1999.90;999.90;;;1.60;99.90;;;;;;5092597;28;20235;-74
2022/01/10 08:37:57;;;;;;;1999.90;999.90;;;1.60;99.90;;;;;;5092877;28;20635;-74
2022/01/10 08:40:23;;;;;;;1999.90;999.90;;;1.70;99.90;;;;;;5092814;28;20185;-73
2022/01/10 08:42:48;;;;;;;1999.90;999.90;;;1.70;99.90;;;;;;5092880;28;20182;-73
2022/01/10 08:45:14;;;;;;;1999.90;999.90;;;1.70;99.90;;;;;;5092285;28;20428;-74
2022/01/10 08:47:40;;;;;;;1999.90;999.90;;;1.80;99.90;;;;;;5092758;28;20166;-74
2022/01/10 08:50:08;;;;;;;1999.90;999.90;;;1.90;99.90;;;;;;5092636;28;20237;-74
2022/01/10 08:52:34;;;;;;;1999.90;999.90;;;2.00;99.90;;;;;;5092586;28;20316;-74
2022/01/10 08:54:59;;;;;;;1999.90;999.90;;;2.10;99.90;;;;;;5092121;28;20277;-74
2022/01/10 08:57:26;;;;;;;1999.90;999.90;;;2.10;99.90;;;;;;5092535;28;20576;-74
2022/01/10 08:59:52;;;;;;;1999.90;999.90;;;2.20;99.90;;;;;;5092468;28;20167;-73
2022/01/10 09:02:17;;;;;;;1999.90;999.90;;;2.20;99.90;;;;;;5092248;28;20182;-73
2022/01/10 09:04:43;;;;;;;1999.90;999.90;;;2.30;99.90;;;;;;5092092;28;20167;-74
2022/01/10 09:07:09;;;;;;;1999.90;999.90;;;2.30;99.90;;;;;;5092412;28;20572;-74
2022/01/10 09:09:37;;;;;;;1999.90;999.90;;;2.40;99.90;;;;;;5074043;28;20177;-73
2022/01/10 09:12:03;;;;;;;1999.90;999.90;;;2.50;99.90;;;;;;5092240;28;20410;-73
2022/01/10 09:14:28;;;;;;;1999.90;999.90;;;2.60;99.90;;;;;;5091854;28;20220;-73
2022/01/10 09:16:54;;;;;;;1999.90;999.90;;;2.50;99.90;;;;;;5091627;28;20190;-74
2022/01/10 09:19:20;;;;;;;1999.90;999.90;;;2.60;99.90;;;;;;5092188;28;20212;-74
2022/01/10 09:21:45;;;;;;;1999.90;999.90;;;2.60;99.90;;;;;;5092154;28;20693;-74
2022/01/10 09:24:11;;;;;;;1999.90;999.90;;;2.60;99.90;;;;;;5091876;28;20220;-74
2022/01/10 09:26:37;;;;;;;1999.90;999.90;;;2.70;99.90;;;;;;5091970;28;20205;-74
2022/01/10 09:29:02;;;;;;;1999.90;999.90;;;2.70;99.90;;;;;;5092002;28;20204;-74
2022/01/10 09:31:28;;;;;;;1999.90;999.90;;;2.80;99.90;;;;;;5092236;28;20177;-75
2022/01/10 09:33:55;;;;;;;1999.90;999.90;;;2.90;99.90;;;;;;5092010;28;20570;-74
2022/01/10 09:36:23;;;;;;;1999.90;999.90;;;3.00;99.90;;;;;;5091709;28;20284;-75
2022/01/10 09:38:49;;;;;;;1999.90;999.90;;;3.10;99.90;;;;;;5092311;28;20655;-75
2022/01/10 09:41:15;;;;;;;1999.90;999.90;;;3.20;99.90;;;;;;5091969;28;20177;-74
2022/01/10 09:43:52;;;;;;;1999.90;999.90;;;3.30;99.90;;;;;;5091958;28;20642;-74
2022/01/10 09:46:18;;;;;;;1999.90;999.90;;;3.30;99.90;;;;;;5091580;28;20438;-74
2022/01/10 09:48:45;;;;;;;1999.90;999.90;;;3.40;99.90;;;;;;5091916;28;20174;-74
2022/01/10 09:51:12;;;;;;;1999.90;999.90;;;3.50;99.90;;;;;;5091971;28;20166;-74
2022/01/10 09:53:37;;;;;;;1999.90;999.90;;;3.50;99.90;;;;;;5091776;28;20186;-74
2022/01/10 09:56:03;;;;;;;1999.90;999.90;;;3.70;99.90;;;;;;5091401;28;20561;-74
2022/01/10 09:58:29;;;;;;;1999.90;999.90;;;3.70;99.90;;;;;;5091807;28;20275;-74
2022/01/10 10:00:56;;;;;;;1999.90;999.90;;;3.80;99.90;;;;;;5091859;28;20797;-74
2022/01/10 10:03:23;;;;;;;1999.90;999.90;;;3.80;99.90;;;;;;5091727;28;20174;-74
2022/01/10 10:05:53;;;;;;;1999.90;999.90;;;4.00;99.90;;;;;;5091444;28;20201;-74
2022/01/10 10:08:20;;;;;;;1999.90;999.90;;;4.10;99.90;;;;;;5091757;28;20166;-74
2022/01/10 10:10:46;;;;;;;1999.90;999.90;;;4.10;99.90;;;;;;5091613;28;20553;-75
2022/01/10 10:13:14;;;;;;;1999.90;999.90;;;4.20;99.90;;;;;;5091573;28;20444;-75
2022/01/10 10:15:41;;;;;;;1999.90;999.90;;;4.40;99.90;;;;;;5091297;28;20197;-74
2022/01/10 10:18:08;;;;;;;1999.90;999.90;;;4.50;99.90;;;;;;5091638;28;20220;-74
2022/01/10 10:20:34;;;;;;;1999.90;999.90;;;4.50;99.90;;;;;;5091628;28;20163;-74
2022/01/10 10:23:03;;;;;;;1999.90;999.90;;;4.60;99.90;;;;;;5091631;28;20212;-74
2022/01/10 10:25:29;;;;;;;1999.90;999.90;;;4.60;99.90;;;;;;5091461;28;20805;-73
2022/01/10 10:27:56;;;;;;;1999.90;999.90;;;4.70;99.90;;;;;;5093930;28;20170;-73
2022/01/10 10:30:28;;;;;;;1999.90;999.90;;;4.80;99.90;;;;;;5095156;28;20554;-73
2022/01/10 10:33:13;;;;;;;1999.90;999.90;;;4.90;99.90;;;;;;5095140;28;20408;-73
2022/01/10 10:35:39;;;;;;;1999.90;999.90;;;5.00;99.90;;;;;;5094785;28;20189;-74
2022/01/10 10:38:06;;;;;;;1999.90;999.90;;;5.10;99.90;;;;;;5077206;28;20980;-73
2022/01/10 10:40:42;;;;;;;1999.90;999.90;;;5.10;99.90;;;;;;5095093;28;20419;-73
2022/01/10 10:43:09;;;;;;;1999.90;999.90;;;5.30;99.90;;;;;;5076781;28;20412;-73
2022/01/10 10:45:35;;;;;;;1999.90;999.90;;;5.30;99.90;;;;;;5094603;28;20436;-74
2022/01/10 10:48:08;;;;;;;1999.90;999.90;;;5.40;99.90;;;;;;5094947;28;20407;-73
2022/01/10 10:50:42;;;;;;;1999.90;999.90;;;5.50;99.90;;;;;;5094966;28;20883;-73
2022/01/10 10:53:10;;;;;;;1999.90;999.90;;;5.70;99.90;;;;;;5094823;28;20493;-74
2022/01/10 10:55:41;;;;;;;1999.90;999.90;;;5.80;99.90;;;;;;5094455;28;20419;-74
2022/01/10 10:58:10;;;;;;;1999.90;999.90;;;6.00;99.90;;;;;;5094779;28;20407;-73
2022/01/10 11:00:37;;;;;;;1999.90;999.90;;;6.00;99.90;;;;;;5094715;28;20549;-73
2022/01/10 11:03:04;;;;;;;1999.90;999.90;;;6.10;99.90;;;;;;5094782;28;20397;-74
2022/01/10 11:05:30;;;;;;;1999.90;999.90;;;6.20;99.90;;;;;;5092611;28;20432;-75
2022/01/10 11:07:56;;;;;;;1999.90;999.90;;;6.30;99.90;;;;;;5096611;28;20393;-75
2022/01/10 11:10:24;;;;;;;1999.90;999.90;;;6.40;99.90;;;;;;5094799;28;20400;-75
2022/01/10 11:12:55;;;;;;;1999.90;999.90;;;6.50;99.90;;;;;;5094409;28;20414;-75
2022/01/10 11:15:23;;;;;;;1999.90;999.90;;;6.60;99.90;;;;;;5093833;28;20424;-74
2022/01/10 11:17:49;;;;;;;1999.90;999.90;;;6.70;99.90;;;;;;5094446;28;20408;-74
2022/01/10 11:20:17;;;;;;;1999.90;999.90;;;6.80;99.90;;;;;;5090911;28;20643;-74
2022/01/10 11:22:49;;;;;;;1999.90;999.90;;;6.90;99.90;;;;;;5092432;28;20400;-74
2022/01/10 11:25:34;;;;;;;1999.90;999.90;;;7.10;99.90;;;;;;5092420;28;20531;-73
2022/01/10 11:28:07;;;;;;;1999.90;999.90;;;7.40;99.90;;;;;;5092551;28;20411;-73
2022/01/10 11:30:41;;;;;;;1999.90;999.90;;;7.90;99.90;;;;;;5092913;28;20398;-74
2022/01/10 11:33:26;;;;;;;1999.90;999.90;;;8.60;99.90;;;;;;5092870;28;20414;-73
2022/01/10 11:35:57;;;;;;;1999.90;999.90;;;9.20;99.90;;;;;;5091876;28;20414;-73
2022/01/10 11:38:45;;;;;;;1999.90;999.90;;;10.00;99.90;;;;;;5092075;28;20481;-73
2022/01/10 11:41:23;;;;;;;1999.90;999.90;;;10.70;99.90;;;;;;5092426;28;20968;-74
2022/01/10 11:43:57;;;;;;;1999.90;999.90;;;11.60;99.90;;;;;;5092331;28;20399;-74
2022/01/10 11:46:26;;;;;;;1999.90;999.90;;;12.00;99.90;;;;;;5091716;28;20427;-75
2022/01/10 11:48:55;;;;;;;1999.90;999.90;;;12.50;99.90;;;;;;5091784;28;20397;-75
2022/01/10 11:51:34;;;;;;;1999.90;999.90;;;12.80;99.90;;;;;;5091724;28;20415;-73
2022/01/10 11:54:08;;;;;;;1999.90;999.90;;;13.00;99.90;;;;;;5091296;28;20498;-74
2022/01/10 11:56:36;;;;;;;1999.90;999.90;;;13.10;99.90;;;;;;5091374;28;20424;-75
2022/01/10 11:59:10;;;;;;;1999.90;999.90;;;13.10;99.90;;;;;;5091629;28;20405;-73
2022/01/10 12:01:39;;;;;;;1999.90;999.90;;;13.30;99.90;;;;;;5091897;28;20412;-73
2022/01/10 12:04:05;;;;;;;1999.90;999.90;;;13.10;99.90;;;;;;5091598;28;20408;-73
2022/01/10 12:06:31;;;;;;;1999.90;999.90;;;13.30;99.90;;;;;;5091292;28;20477;-73
2022/01/10 12:08:57;;;;;;;1999.90;999.90;;;13.30;99.90;;;;;;5091816;28;20798;-73
2022/01/10 12:11:25;;;;;;;1999.90;999.90;;;13.50;99.90;;;;;;5073293;28;20174;-73
2022/01/10 12:13:52;;;;;;;1999.90;999.90;;;13.60;99.90;;;;;;5091309;28;20497;-73
2022/01/10 12:16:19;;;;;;;1999.90;999.90;;;13.70;99.90;;;;;;5091104;28;20984;-73
2022/01/10 12:18:45;;;;;;;1999.90;999.90;;;13.60;99.90;;;;;;5091656;28;20775;-73
2022/01/10 12:21:11;;;;;;;1999.90;999.90;;;13.20;99.90;;;;;;5091030;28;20446;-73